LEAS Airport Information

Runway Information
Runway 11 Length 7218 ft width 148 ft
Elevation 399 ft Threshold 0 ft Heading 109
Runway 29 Length 7218 ft Width 148 ft
Elevation 399 ft Threshold 0 ft Heading 289
Airport Frequencies
Type APP Name APP Frequency 118.15 MHZ
Type GND Name GND Frequency 121.7 MHZ
Type TWR Name TWR Frequency 118.15 MHZ
Airport Navaids
Type NDB Name Asturias Frequency 325 KHZ
Type NDB Name Asturias Frequency 387 KHZ
Type VOR-DME Name Asturias Frequency 112400 KHZ
Airport Weather Information & NOTAM
ADDS - METARS form results

(2337 UTC 29 October 2020)
Data provider http://aviationweather.gov/metar/data/
 
METAR text: LEAS 292330Z AUTO 24006KT CAVOK 12/09 Q1025
Conditions at: LEAS (ASTURIAS/AVILES , ES) observed 2330 UTC 29 October 2020
Temperature: 12.0°C (54°F)
Dewpoint: 9.0°C (48°F) [RH = 82%]
Pressure (altimeter): 30.27 inches Hg (1025.0 mb)
Winds: from the WSW (240 degrees) at 7 MPH (6 knots; 3.1 m/s)
Visibility: 6 or more miles (10+ km)
Ceiling: ceiling and visibility are OK
Clouds: unknown
Weather: no significant weather observed at this time

METAR text: LEAS 292300Z AUTO 24007KT CAVOK 12/09 Q1025
Conditions at: LEAS (ASTURIAS/AVILES , ES) observed 2300 UTC 29 October 2020
Temperature: 12.0°C (54°F)
Dewpoint: 9.0°C (48°F) [RH = 82%]
Pressure (altimeter): 30.27 inches Hg (1025.0 mb)
Winds: from the WSW (240 degrees) at 8 MPH (7 knots; 3.6 m/s)
Visibility: 6 or more miles (10+ km)
Ceiling: ceiling and visibility are OK
Clouds: unknown
Weather: no significant weather observed at this time

Forecast for: LEAS (ASTURIAS/AVILES , ES)
Text: TAF LEAS 292000Z 2921/3021 21005KT CAVOK TX20/3013Z TN08/3007Z
Forecast period: 2100 UTC 29 October 2020 to 2100 UTC 30 October 2020
Forecast type: FROM: standard forecast or significant change
Winds: from the SSW (210 degrees) at 6 MPH (5 knots; 2.6 m/s)
Visibility: 6 or more miles (10+ km)
Ceiling: unknown
Clouds: missing
Weather: no significant weather forecast for this period
Text: PROB40
Forecast period: 1200 to 1700 UTC 30 October 2020
Forecast type: TEMPORARY: The following changes expected for less than half the time period
Winds: from the ENE (70 degrees) at 12 MPH (10 knots; 5.1 m/s)
Visibility: missing
Ceiling: unknown
Clouds: missing
Weather: no significant weather forecast for this period
Text: TEMPO 3012/3017 07010KT
Forecast period: 0300 to 0700 UTC 30 October 2020
Forecast type: TEMPORARY: The following changes expected for less than half the time period
Visibility: 1.86 miles (2.99 km)
Ceiling: unknown
Clouds: missing
Weather: BCFG  (patches of fog)